Time;durP1;ratioP1;P1;durP2;ratioP2;P2;SDS_P1;SDS_P2;PMS_P1;PMS_P2;Temp;Humidity;BMP_temperature;BMP_pressure;BME280_temperature;BME280_humidity;BME280_pressure;Samples;Min_cycle;Max_cycle;Signal;HPM_P1;HPM_P2
2022/06/02 00:00:05;;;;;;;358.40;345.00;;;11.60;99.90;;;;;;5024618;28;20262;-68
2022/06/02 00:02:59;;;;;;;371.02;357.00;;;11.60;99.90;;;;;;5012131;28;20571;-68
2022/06/02 00:05:52;;;;;;;369.80;355.95;;;11.50;99.90;;;;;;5024290;28;20225;-68
2022/06/02 00:08:41;;;;;;;381.15;366.58;;;11.50;99.90;;;;;;5031627;28;20281;-68
2022/06/02 00:11:09;;;;;;;390.75;375.88;;;11.50;99.90;;;;;;5030101;28;20190;-68
2022/06/02 00:13:41;;;;;;;393.77;378.85;;;11.50;99.90;;;;;;5031108;28;20269;-68
2022/06/02 00:16:25;;;;;;;397.97;382.77;;;11.50;99.90;;;;;;5021663;28;20183;-68
2022/06/02 00:18:59;;;;;;;396.73;381.60;;;11.50;99.90;;;;;;5030785;28;20209;-68
2022/06/02 00:21:33;;;;;;;404.23;389.05;;;11.40;99.90;;;;;;5021898;28;20227;-68
2022/06/02 00:24:08;;;;;;;399.63;384.30;;;11.40;99.90;;;;;;5032037;28;20219;-68
2022/06/02 00:26:40;;;;;;;407.43;391.87;;;11.40;99.90;;;;;;5031379;28;20217;-68
2022/06/02 00:29:27;;;;;;;409.65;394.15;;;11.30;99.90;;;;;;5025485;28;20273;-68
2022/06/02 00:32:18;;;;;;;417.48;401.48;;;11.30;99.90;;;;;;5029519;28;20190;-71
2022/06/02 00:35:10;;;;;;;425.50;409.10;;;11.30;99.90;;;;;;5024144;28;20585;-68
2022/06/02 00:37:55;;;;;;;435.47;418.33;;;11.30;99.90;;;;;;5013232;28;20622;-68
2022/06/02 00:40:22;;;;;;;425.83;409.27;;;11.30;99.90;;;;;;5026244;28;20190;-68
2022/06/02 00:42:54;;;;;;;430.67;413.97;;;11.20;99.90;;;;;;5018526;28;20190;-69
2022/06/02 00:45:22;;;;;;;429.90;412.93;;;11.20;99.90;;;;;;5021107;28;20206;-69
2022/06/02 00:48:24;;;;;;;432.10;415.17;;;11.20;99.90;;;;;;5023212;28;20187;-68
2022/06/02 00:51:04;;;;;;;429.73;412.87;;;11.20;99.90;;;;;;5014936;28;20706;-68
2022/06/02 00:57:39;;;;;;;437.77;420.50;;;11.10;99.90;;;;;;4999375;28;20203;-69
2022/06/02 01:00:21;;;;;;;431.03;413.97;;;11.00;99.90;;;;;;5031316;28;20661;-68
2022/06/02 01:02:55;;;;;;;428.77;411.80;;;10.90;99.90;;;;;;5031582;28;20270;-68
2022/06/02 01:05:51;;;;;;;422.80;406.00;;;11.00;99.90;;;;;;5031127;28;20241;-68
2022/06/02 01:08:54;;;;;;;431.57;414.63;;;11.00;99.90;;;;;;5023258;28;20632;-68
2022/06/02 01:11:26;;;;;;;419.20;402.70;;;10.90;99.90;;;;;;5026815;28;20652;-68
2022/06/02 01:14:27;;;;;;;432.63;415.50;;;10.90;99.90;;;;;;5024918;28;20281;-68
2022/06/02 01:17:16;;;;;;;426.97;408.80;;;10.90;99.90;;;;;;5018256;28;20583;-68
2022/06/02 01:20:13;;;;;;;448.80;430.57;;;10.80;99.90;;;;;;5025112;28;20202;-68
2022/06/02 01:22:50;;;;;;;439.27;421.57;;;10.80;99.90;;;;;;5020771;28;20281;-69
2022/06/02 01:25:37;;;;;;;436.63;419.17;;;10.80;99.90;;;;;;5031385;28;20202;-68
2022/06/02 01:28:34;;;;;;;421.73;404.80;;;10.80;99.90;;;;;;5030595;28;20560;-68
2022/06/02 01:31:07;;;;;;;422.83;405.77;;;10.70;99.90;;;;;;5027858;28;20201;-68
2022/06/02 01:33:37;;;;;;;428.83;411.73;;;10.60;99.90;;;;;;5030186;28;20187;-68
2022/06/02 01:36:13;;;;;;;416.90;400.00;;;10.60;99.90;;;;;;5040662;28;20556;-68
2022/06/02 01:39:04;;;;;;;421.43;404.30;;;10.50;99.90;;;;;;5032413;28;20187;-69
2022/06/02 01:41:58;;;;;;;420.80;403.80;;;10.50;99.90;;;;;;5021285;28;20261;-68
2022/06/02 01:44:35;;;;;;;421.20;404.13;;;10.50;99.90;;;;;;5025850;28;20636;-68
2022/06/02 01:47:25;;;;;;;418.10;401.27;;;10.50;99.90;;;;;;5023524;28;20263;-68
2022/06/02 01:50:00;;;;;;;301.43;289.67;;;10.40;99.90;;;;;;5030212;28;20206;-68
2022/06/02 01:52:29;;;;;;;289.23;278.30;;;10.40;99.90;;;;;;5025454;28;20186;-68
2022/06/02 01:55:11;;;;;;;300.40;289.10;;;10.50;99.90;;;;;;5027530;28;20278;-68
2022/06/02 01:58:00;;;;;;;314.93;302.57;;;10.40;99.90;;;;;;5034896;28;20261;-68
2022/06/02 02:00:30;;;;;;;307.07;295.27;;;10.40;99.90;;;;;;5025374;28;20214;-68
2022/06/02 02:03:20;;;;;;;311.20;298.97;;;10.40;99.90;;;;;;5027426;28;20664;-68
2022/06/02 02:06:12;;;;;;;331.10;318.53;;;10.30;99.90;;;;;;5038938;28;20226;-68
2022/06/02 02:08:58;;;;;;;333.20;320.10;;;10.30;99.90;;;;;;5002413;28;20190;-68
2022/06/02 02:11:38;;;;;;;341.43;328.20;;;10.30;99.90;;;;;;5033486;28;20273;-68
2022/06/02 02:14:53;;;;;;;343.20;330.00;;;10.20;99.90;;;;;;5035468;28;20236;-68
2022/06/02 02:18:06;;;;;;;343.23;330.03;;;10.20;99.90;;;;;;5033686;28;20209;-68
2022/06/02 02:20:49;;;;;;;511.83;484.70;;;10.20;99.90;;;;;;5027663;28;20233;-69
2022/06/02 02:23:24;;;;;;;597.57;564.73;;;10.20;99.90;;;;;;5034446;28;20193;-68
2022/06/02 02:25:50;;;;;;;668.70;631.60;;;10.10;99.90;;;;;;5041069;28;20206;-68
2022/06/02 02:28:44;;;;;;;646.97;611.03;;;10.10;99.90;;;;;;5034674;28;20195;-68
2022/06/02 02:31:09;;;;;;;705.80;666.00;;;10.10;99.90;;;;;;5049790;28;20241;-68
2022/06/02 02:34:23;;;;;;;699.77;659.83;;;10.00;99.90;;;;;;5048541;28;20578;-68
2022/06/02 02:37:06;;;;;;;718.13;676.97;;;10.00;99.90;;;;;;5015417;28;20767;-68
2022/06/02 02:40:01;;;;;;;746.50;703.33;;;10.00;99.90;;;;;;5015770;28;20184;-68
2022/06/02 02:42:51;;;;;;;787.27;740.43;;;9.90;99.90;;;;;;5019534;28;20189;-68
2022/06/02 02:45:53;;;;;;;806.83;758.53;;;9.90;99.90;;;;;;5020950;28;20206;-68
2022/06/02 02:48:49;;;;;;;771.03;725.83;;;10.00;99.90;;;;;;5026216;28;20190;-68
2022/06/02 02:51:42;;;;;;;808.20;759.87;;;10.00;99.90;;;;;;5017911;28;20194;-68
2022/06/02 02:54:13;;;;;;;845.73;793.40;;;10.00;99.90;;;;;;5022423;28;20199;-67
2022/06/02 02:56:51;;;;;;;837.90;786.77;;;9.90;99.90;;;;;;5024233;28;20608;-67
2022/06/02 02:59:31;;;;;;;891.63;836.07;;;9.90;99.90;;;;;;5043348;28;20195;-70
2022/06/02 03:02:54;;;;;;;893.43;836.83;;;9.90;99.90;;;;;;5023908;28;20295;-68
2022/06/02 03:05:30;;;;;;;873.23;819.33;;;9.90;99.90;;;;;;5031410;28;20215;-68
2022/06/02 03:08:19;;;;;;;862.23;809.20;;;9.80;99.90;;;;;;5030520;28;20276;-68
2022/06/02 03:10:50;;;;;;;893.27;837.33;;;9.80;99.90;;;;;;5034994;28;20199;-67
2022/06/02 03:13:37;;;;;;;922.40;863.50;;;9.80;99.90;;;;;;5026198;28;20541;-67
2022/06/02 03:16:09;;;;;;;931.23;871.53;;;9.80;99.90;;;;;;5032681;28;20195;-67
2022/06/02 03:18:46;;;;;;;902.70;845.57;;;9.80;99.90;;;;;;5024409;28;20198;-67
2022/06/02 03:21:31;;;;;;;952.93;890.90;;;9.80;99.90;;;;;;5029441;28;20651;-67
2022/06/02 03:24:15;;;;;;;964.00;900.80;;;9.80;99.90;;;;;;5029224;28;20175;-68
2022/06/02 03:27:08;;;;;;;950.73;888.53;;;9.80;99.90;;;;;;5019078;28;20577;-69
2022/06/02 03:30:21;;;;;;;952.93;891.07;;;9.80;99.90;;;;;;5043665;28;20281;-67
2022/06/02 03:33:09;;;;;;;945.57;884.43;;;9.80;99.90;;;;;;5033430;28;20712;-68
2022/06/02 03:35:53;;;;;;;952.67;890.77;;;9.70;99.90;;;;;;5031898;28;20191;-67
2022/06/02 03:38:27;;;;;;;1003.20;935.13;;;9.70;99.90;;;;;;5021218;28;20183;-67
2022/06/02 03:41:00;;;;;;;1008.07;940.17;;;9.70;99.90;;;;;;5022663;28;20174;-67
2022/06/02 03:43:37;;;;;;;1024.23;954.10;;;9.80;99.90;;;;;;5032549;28;20175;-67
2022/06/02 03:46:24;;;;;;;1026.57;956.03;;;9.70;99.90;;;;;;5032515;28;20202;-67
2022/06/02 03:49:11;;;;;;;1028.43;957.83;;;9.80;99.90;;;;;;5021578;28;20553;-68
2022/06/02 03:52:03;;;;;;;1008.77;940.53;;;9.80;99.90;;;;;;5037478;28;20226;-67
2022/06/02 03:54:46;;;;;;;1032.33;961.23;;;9.70;99.90;;;;;;5042893;28;20246;-67
2022/06/02 03:57:29;;;;;;;1026.13;955.33;;;9.70;99.90;;;;;;5032376;28;20183;-67
2022/06/02 04:00:07;;;;;;;1053.77;980.13;;;9.70;99.90;;;;;;5015932;28;20253;-67
2022/06/02 04:02:55;;;;;;;1057.07;982.50;;;9.70;99.90;;;;;;5030942;28;20535;-68
2022/06/02 04:05:32;;;;;;;1046.47;973.23;;;9.80;99.90;;;;;;5022996;28;20246;-67
2022/06/02 04:08:23;;;;;;;1045.43;972.33;;;9.90;99.90;;;;;;5025470;28;20186;-67
2022/06/02 04:11:11;;;;;;;1059.03;984.10;;;9.90;99.90;;;;;;5030957;28;20735;-67
2022/06/02 04:13:42;;;;;;;1043.37;970.87;;;9.90;99.90;;;;;;5046583;28;20270;-67
2022/06/02 04:16:42;;;;;;;1051.93;977.93;;;9.90;99.90;;;;;;5031583;28;20191;-67
2022/06/02 04:22:38;;;;;;;1066.60;990.53;;;10.00;99.90;;;;;;5027193;28;20647;-67
2022/06/02 04:25:17;;;;;;;1061.43;986.10;;;10.10;99.90;;;;;;5028386;28;20210;-67
2022/06/02 04:27:52;;;;;;;1082.57;999.57;;;10.20;99.90;;;;;;5047858;28;20190;-67
2022/06/02 04:30:34;;;;;;;1085.53;999.90;;;10.30;99.90;;;;;;5022908;28;20638;-67
2022/06/02 04:33:08;;;;;;;1075.70;996.97;;;10.30;99.90;;;;;;5042766;28;20182;-67
2022/06/02 04:35:51;;;;;;;1070.93;994.20;;;10.40;99.90;;;;;;5047310;28;20182;-67
2022/06/02 04:38:17;;;;;;;1070.97;994.57;;;10.30;99.90;;;;;;5030739;28;20175;-67
2022/06/02 04:40:49;;;;;;;1074.93;996.87;;;10.40;99.90;;;;;;5031819;28;20186;-67
2022/06/02 04:43:21;;;;;;;1110.97;999.90;;;10.30;99.90;;;;;;5031794;28;20217;-67
2022/06/02 04:45:55;;;;;;;1114.43;999.90;;;10.30;99.90;;;;;;5041424;28;20231;-67
2022/06/02 04:48:30;;;;;;;1117.00;999.90;;;10.50;99.90;;;;;;5030686;28;20189;-67
2022/06/02 04:51:05;;;;;;;1125.47;999.90;;;10.60;99.90;;;;;;5031183;28;20257;-67
2022/06/02 04:53:56;;;;;;;1109.37;999.90;;;10.70;99.90;;;;;;5047666;28;20265;-67
2022/06/02 04:56:54;;;;;;;1102.63;999.90;;;10.70;99.90;;;;;;5028867;28;20190;-68
2022/06/02 04:59:33;;;;;;;1109.93;999.90;;;10.80;99.90;;;;;;5042538;28;20542;-68
2022/06/02 05:02:07;;;;;;;1107.93;999.90;;;10.90;99.90;;;;;;5031263;28;20229;-67
2022/06/02 05:04:53;;;;;;;1082.03;999.57;;;10.90;99.90;;;;;;5028892;28;20183;-68
2022/06/02 05:07:27;;;;;;;1095.07;999.90;;;11.00;99.90;;;;;;5029426;28;20193;-67
2022/06/02 05:10:20;;;;;;;1104.20;999.90;;;11.10;99.90;;;;;;5030728;28;20180;-67
2022/06/02 05:13:04;;;;;;;1084.10;999.15;;;11.10;99.90;;;;;;5039258;28;20268;-67
2022/06/02 05:16:15;;;;;;;1080.83;999.07;;;11.30;99.90;;;;;;5030314;28;20209;-67
2022/06/02 05:18:53;;;;;;;1058.47;982.63;;;11.40;99.90;;;;;;5039411;28;20190;-67
2022/06/02 05:21:57;;;;;;;1066.32;990.28;;;11.50;99.90;;;;;;5032108;28;20189;-70
2022/06/02 05:24:48;;;;;;;1049.88;976.25;;;11.60;99.90;;;;;;5022750;28;20268;-66
2022/06/02 05:27:43;;;;;;;1048.90;975.25;;;11.70;99.90;;;;;;5041237;28;20282;-67
2022/06/02 05:30:27;;;;;;;1062.88;987.55;;;11.90;99.90;;;;;;5048965;28;20191;-67
2022/06/02 05:33:14;;;;;;;1035.60;963.55;;;12.00;99.90;;;;;;5044731;28;20187;-68
2022/06/02 05:35:48;;;;;;;1035.82;964.13;;;12.00;99.90;;;;;;5016667;28;20551;-68
2022/06/02 05:38:36;;;;;;;1031.40;960.33;;;12.10;99.90;;;;;;5029556;28;20186;-68
2022/06/02 05:41:20;;;;;;;1039.07;966.85;;;12.20;99.90;;;;;;5017675;28;20179;-67
2022/06/02 05:44:09;;;;;;;1023.78;952.70;;;12.20;99.90;;;;;;5026929;28;20663;-70
2022/06/02 05:46:53;;;;;;;1027.88;957.10;;;12.30;99.90;;;;;;5017611;28;20202;-67
2022/06/02 05:49:38;;;;;;;1011.60;942.63;;;12.40;99.90;;;;;;5017739;28;20186;-67
2022/06/02 05:52:53;;;;;;;1016.22;946.92;;;12.50;99.90;;;;;;5030187;28;20183;-67
2022/06/02 05:55:38;;;;;;;1023.53;954.00;;;12.60;99.90;;;;;;5018172;28;20194;-67
2022/06/02 05:58:27;;;;;;;1031.40;960.28;;;12.60;99.90;;;;;;5033822;28;20240;-67
2022/06/02 06:01:11;;;;;;;1018.72;949.53;;;12.70;99.90;;;;;;5018430;28;20217;-67
2022/06/02 06:03:59;;;;;;;994.28;927.30;;;12.90;99.90;;;;;;5022702;28;20187;-67
2022/06/02 06:06:34;;;;;;;999.08;931.60;;;12.90;99.90;;;;;;5036843;28;20211;-67
2022/06/02 06:09:09;;;;;;;1016.55;947.55;;;12.90;99.90;;;;;;5030808;28;20193;-67
2022/06/02 06:11:48;;;;;;;1010.00;940.45;;;13.00;99.90;;;;;;5025784;28;20251;-69
2022/06/02 06:14:16;;;;;;;971.22;907.20;;;13.10;99.90;;;;;;5026475;28;20186;-68
2022/06/02 06:16:57;;;;;;;949.88;887.97;;;13.40;99.90;;;;;;5035396;28;20174;-68
2022/06/02 06:19:41;;;;;;;913.17;854.92;;;13.40;99.90;;;;;;5027867;28;20183;-68
2022/06/02 06:22:28;;;;;;;958.20;895.38;;;13.60;99.90;;;;;;5040698;28;20639;-67
2022/06/02 06:25:12;;;;;;;945.03;883.60;;;13.70;99.90;;;;;;5013737;28;20222;-69
2022/06/02 06:27:53;;;;;;;919.65;860.55;;;14.00;99.90;;;;;;5037131;28;20183;-68
2022/06/02 06:30:21;;;;;;;966.88;903.17;;;13.80;99.90;;;;;;5045293;28;20273;-69
2022/06/02 06:33:14;;;;;;;956.13;893.50;;;13.90;99.90;;;;;;5049310;28;20183;-73
2022/06/02 06:36:13;;;;;;;981.22;916.03;;;14.00;99.90;;;;;;5044673;28;20184;-76
2022/06/02 06:38:45;;;;;;;933.75;872.33;;;14.10;99.90;;;;;;5028763;28;20201;-79
2022/06/02 06:41:28;;;;;;;941.40;880.00;;;13.90;99.90;;;;;;5027109;28;20250;-68
2022/06/02 06:44:19;;;;;;;946.47;883.83;;;14.00;99.90;;;;;;5044772;28;20213;-69
2022/06/02 06:46:55;;;;;;;989.95;923.63;;;14.00;99.90;;;;;;5041090;28;20195;-68
2022/06/02 06:49:43;;;;;;;1007.17;938.17;;;14.30;99.90;;;;;;5017667;28;20714;-68
2022/06/02 06:52:42;;;;;;;1012.35;941.78;;;14.90;99.90;;;;;;5021699;28;20191;-68
2022/06/02 06:55:27;;;;;;;1081.38;995.80;;;16.50;99.90;;;;;;5024039;28;20548;-68
2022/06/02 06:58:02;;;;;;;1002.22;930.50;;;18.40;99.90;;;;;;5033652;28;20257;-68
2022/06/02 07:00:49;;;;;;;1086.00;998.28;;;20.10;99.90;;;;;;5016695;28;20209;-69
2022/06/02 07:03:27;;;;;;;1030.35;956.40;;;20.90;99.90;;;;;;5016185;28;20660;-68
2022/06/02 07:06:01;;;;;;;1033.90;959.75;;;21.60;99.90;;;;;;5025620;28;20558;-69
2022/06/02 07:08:35;;;;;;;1077.85;994.90;;;22.80;99.90;;;;;;5018503;28;20189;-69
2022/06/02 07:14:29;;;;;;;1109.70;999.90;;;23.60;99.90;;;;;;5026299;28;20280;-69
2022/06/02 07:16:58;;;;;;;1127.55;999.90;;;22.70;99.90;;;;;;5019896;28;20171;-71
2022/06/02 07:19:49;;;;;;;1129.63;999.90;;;23.10;99.90;;;;;;5025875;28;20662;-75
2022/06/02 07:22:25;;;;;;;1141.78;999.90;;;23.00;99.90;;;;;;5025074;28;20241;-70
2022/06/02 07:25:21;;;;;;;1134.93;999.90;;;24.30;99.90;;;;;;5031606;28;20212;-71
2022/06/02 07:28:13;;;;;;;1139.72;999.90;;;25.10;99.90;;;;;;5025863;28;20229;-71
2022/06/02 07:31:15;;;;;;;1145.97;999.90;;;24.20;99.90;;;;;;5025504;28;20568;-73
2022/06/02 07:33:47;;;;;;;1161.80;999.90;;;22.60;99.90;;;;;;5029256;28;20186;-71
2022/06/02 07:36:34;;;;;;;1176.25;999.90;;;21.30;99.90;;;;;;5015803;28;20665;-71
2022/06/02 07:39:09;;;;;;;1184.15;999.90;;;21.70;99.90;;;;;;5027024;28;20221;-71
2022/06/02 07:42:04;;;;;;;1188.13;999.90;;;22.20;99.90;;;;;;5014512;28;20186;-71
2022/06/02 07:44:54;;;;;;;1180.38;999.90;;;23.40;99.90;;;;;;5021153;28;20190;-71
2022/06/02 07:47:44;;;;;;;1194.32;999.90;;;24.40;99.90;;;;;;5014717;28;20263;-72
2022/06/02 07:50:34;;;;;;;1180.43;999.90;;;22.90;99.90;;;;;;5039989;28;20186;-72
2022/06/02 07:53:17;;;;;;;1173.07;999.90;;;24.30;99.90;;;;;;5015740;28;20277;-72
2022/06/02 07:56:09;;;;;;;1180.28;999.90;;;24.10;99.90;;;;;;5025333;28;20208;-73
2022/06/02 07:58:47;;;;;;;1169.32;999.90;;;25.50;99.90;;;;;;5032771;28;20234;-72
2022/06/02 08:01:19;;;;;;;1178.03;999.90;;;25.70;99.90;;;;;;5032103;28;20206;-72
2022/06/02 08:03:53;;;;;;;1184.85;999.90;;;23.50;99.90;;;;;;5032882;28;20221;-73
2022/06/02 08:06:37;;;;;;;1178.97;999.90;;;22.90;99.90;;;;;;5024230;28;20301;-73
2022/06/02 08:09:45;;;;;;;1165.45;999.90;;;22.40;99.90;;;;;;5047576;28;20190;-73
2022/06/02 08:12:11;;;;;;;1166.57;999.90;;;23.20;99.90;;;;;;5016550;28;20189;-72
2022/06/02 08:15:04;;;;;;;1164.15;999.90;;;24.40;99.90;;;;;;5029792;28;20183;-73
2022/06/02 08:17:36;;;;;;;1179.18;999.90;;;24.20;99.90;;;;;;5015847;28;20183;-73
2022/06/02 08:20:11;;;;;;;1203.55;999.90;;;25.10;99.90;;;;;;5020941;28;20183;-74
2022/06/02 08:22:42;;;;;;;1197.53;999.90;;;24.50;99.90;;;;;;5019153;28;20205;-73
2022/06/02 08:25:14;;;;;;;1191.75;999.90;;;25.20;99.90;;;;;;5029172;28;20206;-72
2022/06/02 08:27:53;;;;;;;1193.78;999.90;;;25.50;99.90;;;;;;5032045;28;20227;-72
2022/06/02 08:30:25;;;;;;;1199.65;999.90;;;25.00;99.90;;;;;;5019928;28;20186;-73
2022/06/02 08:33:10;;;;;;;1170.13;999.90;;;25.20;99.90;;;;;;5021239;28;20182;-73
2022/06/02 08:35:56;;;;;;;1177.88;999.90;;;25.50;99.90;;;;;;5030491;28;20193;-73
2022/06/02 08:38:49;;;;;;;1185.60;999.90;;;26.60;99.90;;;;;;5031792;28;20265;-73
2022/06/02 08:41:30;;;;;;;1193.80;999.90;;;27.10;99.90;;;;;;5044782;28;20208;-73
2022/06/02 08:44:15;;;;;;;1193.38;999.90;;;25.80;99.90;;;;;;5013745;28;20636;-73
2022/06/02 08:47:08;;;;;;;1198.40;999.90;;;25.90;99.90;;;;;;5027602;28;20716;-73
2022/06/02 08:49:33;;;;;;;1200.68;999.90;;;25.50;99.90;;;;;;5020982;28;20237;-73
2022/06/02 08:52:14;;;;;;;1206.45;999.90;;;25.20;99.90;;;;;;5021986;28;20182;-73
2022/06/02 08:54:46;;;;;;;1211.50;999.90;;;25.20;99.90;;;;;;5031023;28;20178;-73
2022/06/02 08:57:37;;;;;;;1218.68;999.90;;;24.90;99.90;;;;;;5032792;28;20666;-73
2022/06/02 09:00:27;;;;;;;1213.38;999.90;;;24.40;99.90;;;;;;5005450;28;20201;-72
2022/06/02 09:03:49;;;;;;;1207.57;999.90;;;23.60;99.90;;;;;;5030273;28;20221;-73
2022/06/02 09:06:35;;;;;;;1221.78;999.90;;;23.40;99.90;;;;;;5033301;28;20206;-72
2022/06/02 09:09:19;;;;;;;1210.72;999.90;;;23.30;99.90;;;;;;5034024;28;20245;-72
2022/06/02 09:12:11;;;;;;;1192.03;999.90;;;23.60;99.90;;;;;;5024194;28;20425;-72
2022/06/02 09:14:52;;;;;;;1198.53;999.90;;;22.80;99.90;;;;;;5030994;28;20193;-72
2022/06/02 09:17:51;;;;;;;1223.68;999.90;;;23.30;99.90;;;;;;5024331;28;20195;-71
2022/06/02 09:20:48;;;;;;;1233.60;999.90;;;23.00;99.90;;;;;;5030333;28;20178;-73
2022/06/02 09:23:55;;;;;;;1235.25;999.90;;;23.80;99.90;;;;;;5045482;28;20540;-72
2022/06/02 09:26:21;;;;;;;1229.45;999.90;;;24.00;99.90;;;;;;5035058;28;20206;-73
2022/06/02 09:28:57;;;;;;;1231.32;999.90;;;23.80;99.90;;;;;;5050629;28;20193;-72
2022/06/02 09:31:59;;;;;;;1210.85;999.90;;;23.30;99.90;;;;;;5033041;28;20241;-72
2022/06/02 09:34:25;;;;;;;1203.70;999.90;;;22.90;99.90;;;;;;5039484;28;20670;-73
2022/06/02 09:37:12;;;;;;;1194.30;999.90;;;22.60;99.90;;;;;;5030940;28;20202;-72
2022/06/02 09:40:02;;;;;;;1188.68;999.90;;;22.40;99.90;;;;;;5035276;28;20221;-73
2022/06/02 09:42:34;;;;;;;1183.93;999.90;;;21.90;99.90;;;;;;5049674;28;20373;-72
2022/06/02 09:45:03;;;;;;;1186.85;999.90;;;21.30;99.90;;;;;;5050381;28;20606;-70
2022/06/02 09:48:08;;;;;;;1193.97;999.90;;;21.10;99.90;;;;;;5034805;28;20210;-70
2022/06/02 09:50:59;;;;;;;1190.22;999.90;;;21.00;99.90;;;;;;5034269;28;20186;-70
2022/06/02 09:53:48;;;;;;;1191.05;999.90;;;20.10;99.90;;;;;;5027206;28;20183;-69
2022/06/02 09:56:34;;;;;;;1200.28;999.90;;;19.80;99.90;;;;;;5032136;28;20537;-69
2022/06/02 09:59:40;;;;;;;1186.28;999.90;;;19.40;99.90;;;;;;5042726;28;20694;-71
2022/06/02 10:02:33;;;;;;;1175.35;999.90;;;19.30;99.90;;;;;;5025992;28;20190;-69
2022/06/02 10:05:13;;;;;;;1188.88;999.90;;;19.70;99.90;;;;;;5026803;28;20660;-69
2022/06/02 10:07:44;;;;;;;1180.93;999.90;;;19.30;99.90;;;;;;5023924;28;20187;-69
2022/06/02 10:10:39;;;;;;;1188.50;999.90;;;19.30;99.90;;;;;;5050438;28;20210;-69
2022/06/02 10:13:56;;;;;;;1181.80;999.90;;;19.50;99.90;;;;;;5033016;28;20178;-70
2022/06/02 10:17:07;;;;;;;1186.03;999.90;;;19.20;99.90;;;;;;5033245;28;20576;-69
2022/06/02 10:20:12;;;;;;;1185.75;999.90;;;18.70;99.90;;;;;;5024274;28;20598;-69
2022/06/02 10:22:56;;;;;;;1181.38;999.90;;;18.40;99.90;;;;;;5024516;28;20644;-70
2022/06/02 10:25:41;;;;;;;1165.97;999.90;;;18.80;99.90;;;;;;5019534;28;20210;-69
2022/06/02 10:28:06;;;;;;;1186.20;999.90;;;19.60;99.90;;;;;;5034618;28;20270;-70
2022/06/02 10:30:53;;;;;;;1183.45;999.90;;;19.60;99.90;;;;;;5032599;28;20282;-69
2022/06/02 10:34:09;;;;;;;1188.07;999.90;;;19.40;99.90;;;;;;5034889;28;20183;-69
2022/06/02 10:36:40;;;;;;;1175.57;999.90;;;19.10;99.90;;;;;;5034123;28;20668;-69
2022/06/02 10:39:31;;;;;;;1188.85;999.90;;;19.40;99.90;;;;;;5032919;28;20186;-69
2022/06/02 10:42:21;;;;;;;1190.25;999.90;;;19.60;99.90;;;;;;5034069;28;20194;-69
2022/06/02 10:45:24;;;;;;;1180.50;999.90;;;19.00;99.90;;;;;;5048609;28;20653;-70
2022/06/02 10:48:41;;;;;;;1187.53;999.90;;;19.10;99.90;;;;;;5022022;28;20191;-69
2022/06/02 10:51:24;;;;;;;1185.70;999.90;;;19.10;99.90;;;;;;5007310;28;20199;-69
2022/06/02 10:54:23;;;;;;;1185.13;999.90;;;19.10;99.90;;;;;;5027170;28;20221;-69
2022/06/02 10:57:07;;;;;;;1189.57;999.90;;;19.10;99.90;;;;;;5030305;28;20179;-69
2022/06/02 10:59:57;;;;;;;1197.78;999.90;;;19.30;99.90;;;;;;5037205;28;20262;-70
2022/06/02 11:02:56;;;;;;;1199.25;999.90;;;19.20;99.90;;;;;;5028516;28;20198;-69
2022/06/02 11:05:45;;;;;;;1192.85;999.90;;;19.10;99.90;;;;;;5024500;28;20214;-69
2022/06/02 11:08:39;;;;;;;1192.53;999.90;;;19.10;99.90;;;;;;5019803;28;20199;-69
2022/06/02 11:12:01;;;;;;;1191.68;999.90;;;19.20;99.90;;;;;;5032115;28;20241;-69
2022/06/02 11:15:04;;;;;;;1182.03;999.90;;;19.40;99.90;;;;;;5030933;28;20191;-69
2022/06/02 11:18:00;;;;;;;1177.95;999.90;;;19.40;99.90;;;;;;5014869;28;20190;-69
2022/06/02 11:20:50;;;;;;;1182.72;999.90;;;19.70;99.90;;;;;;5013511;28;20210;-69
2022/06/02 11:23:45;;;;;;;1193.32;999.90;;;19.50;99.90;;;;;;5018937;28;20191;-70
2022/06/02 11:26:39;;;;;;;1174.53;999.90;;;19.60;99.90;;;;;;5048468;28;20230;-70
2022/06/02 11:29:37;;;;;;;1190.43;999.90;;;19.50;99.90;;;;;;5032709;28;20178;-69
2022/06/02 11:32:21;;;;;;;1202.50;999.90;;;19.30;99.90;;;;;;5031174;28;20191;-69
2022/06/02 11:34:47;;;;;;;1196.63;999.90;;;19.00;99.90;;;;;;5034377;28;20186;-70
2022/06/02 11:37:31;;;;;;;1185.80;999.90;;;19.00;99.90;;;;;;5047460;28;20272;-70
2022/06/02 11:40:35;;;;;;;1186.70;999.90;;;19.10;99.90;;;;;;5029517;28;20186;-70
2022/06/02 11:43:24;;;;;;;1195.43;999.90;;;19.40;99.90;;;;;;5022224;28;20178;-70
2022/06/02 11:46:17;;;;;;;1205.03;999.90;;;19.40;99.90;;;;;;5016007;28;20191;-70
2022/06/02 11:48:43;;;;;;;1200.07;999.90;;;19.10;99.90;;;;;;5019080;28;20256;-70
2022/06/02 11:51:33;;;;;;;1200.40;999.90;;;19.40;99.90;;;;;;5016927;28;20206;-70
2022/06/02 11:54:46;;;;;;;1196.13;999.90;;;19.30;99.90;;;;;;5030479;28;20643;-71
2022/06/02 11:57:21;;;;;;;1191.57;999.90;;;19.00;99.90;;;;;;5001521;28;20191;-69
2022/06/02 12:00:41;;;;;;;1189.22;999.90;;;19.10;99.90;;;;;;5032051;28;20178;-70
2022/06/02 12:03:07;;;;;;;1193.60;999.90;;;19.20;99.90;;;;;;5026460;28;20680;-69
2022/06/02 12:06:07;;;;;;;1193.03;999.90;;;19.10;99.90;;;;;;5028494;28;20238;-70
2022/06/02 12:08:53;;;;;;;1198.85;999.90;;;19.30;99.90;;;;;;5017943;28;20202;-70
2022/06/02 12:11:40;;;;;;;1186.55;999.90;;;19.30;99.90;;;;;;5028927;28;20196;-68
2022/06/02 12:14:30;;;;;;;1199.32;999.90;;;19.20;99.90;;;;;;5031256;28;20224;-69
2022/06/02 12:17:23;;;;;;;1199.93;999.90;;;19.30;99.90;;;;;;5020044;28;20603;-70
2022/06/02 12:19:58;;;;;;;1211.53;999.90;;;19.30;99.90;;;;;;5046063;28;20209;-69
2022/06/02 12:22:29;;;;;;;1197.03;999.90;;;19.60;99.90;;;;;;5027396;28;20178;-69
2022/06/02 12:25:16;;;;;;;1197.90;999.90;;;19.70;99.90;;;;;;5042758;28;20623;-69
2022/06/02 12:27:51;;;;;;;1196.70;999.90;;;19.60;99.90;;;;;;5027805;28;20182;-69
2022/06/02 12:30:35;;;;;;;1199.95;999.90;;;19.50;99.90;;;;;;5028112;28;20246;-69
2022/06/02 12:33:35;;;;;;;1202.45;999.90;;;19.40;99.90;;;;;;5014352;28;20191;-69
2022/06/02 12:36:22;;;;;;;1184.95;999.90;;;19.40;99.90;;;;;;5021942;28;20182;-69
2022/06/02 12:39:02;;;;;;;1204.35;999.90;;;19.30;99.90;;;;;;5028738;28;20179;-69
2022/06/02 12:42:05;;;;;;;1192.38;999.90;;;19.40;99.90;;;;;;5030846;28;20183;-69
2022/06/02 12:44:41;;;;;;;1189.63;999.90;;;19.70;99.90;;;;;;5024683;28;20264;-71
2022/06/02 12:47:44;;;;;;;1201.63;999.90;;;19.70;99.90;;;;;;5031855;28;20196;-69
2022/06/02 12:50:29;;;;;;;1201.78;999.90;;;19.80;99.90;;;;;;5031798;28;20534;-70
2022/06/02 12:53:15;;;;;;;1196.10;999.90;;;19.70;99.90;;;;;;5021550;28;20511;-69
2022/06/02 12:56:08;;;;;;;1203.90;999.90;;;19.80;99.90;;;;;;5014820;28;20193;-70
2022/06/02 12:58:36;;;;;;;1194.93;999.90;;;19.80;99.90;;;;;;5030876;28;20285;-69
2022/06/02 13:01:27;;;;;;;1199.80;999.90;;;19.90;99.90;;;;;;5017456;28;20640;-69
2022/06/02 13:04:08;;;;;;;1200.22;999.90;;;19.80;99.90;;;;;;5028983;28;20652;-69
2022/06/02 13:06:52;;;;;;;1200.68;999.90;;;19.80;99.90;;;;;;5038223;28;20544;-70
2022/06/02 13:09:46;;;;;;;1201.13;999.90;;;20.00;99.90;;;;;;5041540;28;20225;-70
2022/06/02 13:12:23;;;;;;;1196.00;999.90;;;20.20;99.90;;;;;;5030362;28;20183;-71
2022/06/02 13:15:02;;;;;;;1200.15;999.90;;;20.20;99.90;;;;;;5026331;28;20186;-69
2022/06/02 13:17:49;;;;;;;1206.20;999.90;;;20.00;99.90;;;;;;5029972;28;20183;-69
2022/06/02 13:20:45;;;;;;;1198.50;999.90;;;20.20;99.90;;;;;;5023551;28;20183;-69
2022/06/02 13:23:34;;;;;;;1196.80;999.90;;;20.50;99.90;;;;;;5020500;28;20206;-70
2022/06/02 13:26:33;;;;;;;1203.18;999.90;;;20.30;99.90;;;;;;5020590;28;20576;-69
2022/06/02 13:29:08;;;;;;;1202.60;999.90;;;20.20;99.90;;;;;;5026779;28;20179;-69
2022/06/02 13:32:08;;;;;;;1208.43;999.90;;;20.00;99.90;;;;;;5028036;28;20562;-70
2022/06/02 13:34:59;;;;;;;1200.65;999.90;;;19.90;99.90;;;;;;5021986;28;20179;-70
2022/06/02 13:37:54;;;;;;;1179.40;999.90;;;20.10;99.90;;;;;;5019165;28;20194;-69
2022/06/02 13:40:38;;;;;;;1205.38;999.90;;;19.90;99.90;;;;;;5012252;28;20183;-69
2022/06/02 13:43:07;;;;;;;1207.07;999.90;;;19.80;99.90;;;;;;5016268;28;20198;-70